Logan, New Mexico
Current Conditions -  °F | °C
As of 2:53 AM on Wednesday 26 Nov 2014 (Local Time) from KTCC Reporting Station
Clear Clear  
Wind Chill: 33°   Ceiling: Unl
Heat Index: 41°   Visibility: 10mi
Dew Point: 21°   Wind: 16mph
Humidity: 45%   Direction: 280°W
Pressure: 30.07"   Gusts: NA
Location:  35.37°N, 103.41°W
Report Text: KTCC 260953Z AUTO 28014KT 10SM CLR 05/M06 A3007 RMK AO2 SLP165 T00501061
Loading
Personal Weather Stations






























Interactive Weather Map New forecast layout! Learn more

10-Day Weather Forecast

Advertisements
Track Severe Weather on mobile